Time;durP1;ratioP1;P1;durP2;ratioP2;P2;SDS_P1;SDS_P2;PMS_P1;PMS_P2;Temp;Humidity;BMP_temperature;BMP_pressure;BME280_temperature;BME280_humidity;BME280_pressure;Samples;Min_cycle;Max_cycle;Signal;HPM_P1;HPM_P2
2021/04/14 00:01:24;;;;;;;10.60;3.73;;;;;;;6.53;51.73;101025.34;5051453;27;99566;-72
2021/04/14 00:03:50;;;;;;;18.57;4.50;;;;;;;6.59;51.94;101022.69;5032164;27;97560;-73
2021/04/14 00:06:17;;;;;;;13.03;5.63;;;;;;;6.55;51.96;101024.44;5073743;27;97115;-73
2021/04/14 00:08:43;;;;;;;14.70;4.13;;;;;;;6.52;52.09;101024.47;5058530;27;97652;-73
2021/04/14 00:11:15;;;;;;;7.63;3.30;;;;;;;6.48;52.53;101019.28;5049847;27;99816;-73
2021/04/14 00:13:43;;;;;;;12.27;4.37;;;;;;;6.49;52.45;101019.28;5033528;27;97516;-73
2021/04/14 00:16:14;;;;;;;22.13;4.93;;;;;;;6.53;51.86;101023.59;5041026;27;97380;-72
2021/04/14 00:18:40;;;;;;;15.90;4.85;;;;;;;6.52;52.07;101024.47;5040828;27;100328;-73
2021/04/14 00:21:06;;;;;;;9.57;3.53;;;;;;;6.48;52.52;101020.13;5053735;27;97545;-73
2021/04/14 00:23:32;;;;;;;8.07;3.67;;;;;;;6.50;52.07;101013.16;5053939;27;97029;-73
2021/04/14 00:25:58;;;;;;;10.37;3.23;;;;;;;6.48;52.37;101012.31;5054467;27;97130;-79
2021/04/14 00:28:25;;;;;;;10.10;3.90;;;;;;;6.51;52.15;101008.81;5036461;27;99488;-72
2021/04/14 00:30:52;;;;;;;12.80;4.63;;;;;;;6.49;52.35;101006.22;5055379;27;99329;-72
2021/04/14 00:33:18;;;;;;;11.57;4.33;;;;;;;6.49;52.35;101008.84;5036677;27;96722;-73
2021/04/14 00:35:44;;;;;;;15.47;4.77;;;;;;;6.48;52.05;101007.09;5058660;27;96647;-73
2021/04/14 00:38:12;;;;;;;12.90;4.60;;;;;;;6.49;52.31;101005.38;5039316;27;100650;-73
2021/04/14 00:40:44;;;;;;;13.07;3.87;;;;;;;6.45;52.35;101011.47;5054627;27;100665;-73
2021/04/14 00:43:22;;;;;;;17.23;4.72;;;;;;;6.43;52.72;101010.59;5036885;27;97249;-73
2021/04/14 00:45:48;;;;;;;13.33;4.00;;;;;;;6.40;52.78;101011.50;5066629;27;96878;-73
2021/04/14 00:48:15;;;;;;;16.07;4.30;;;;;;;6.38;52.96;101012.38;5054019;27;97497;-73
2021/04/14 00:50:41;;;;;;;9.07;3.63;;;;;;;6.39;52.64;101007.16;5037564;27;99428;-73
2021/04/14 00:53:09;;;;;;;10.80;3.93;;;;;;;6.43;52.74;101013.22;5053279;27;97115;-73
2021/04/14 00:55:36;;;;;;;14.40;3.80;;;;;;;6.39;52.87;101003.69;5054846;27;97352;-73
2021/04/14 00:58:05;;;;;;;10.93;3.63;;;;;;;6.34;52.70;101003.69;5039911;27;99530;-73
2021/04/14 01:00:33;;;;;;;13.57;4.47;;;;;;;6.37;52.54;101008.03;5057579;27;100763;-73
2021/04/14 01:03:00;;;;;;;12.47;4.30;;;;;;;6.34;52.54;101011.53;5056482;27;96570;-80
2021/04/14 01:05:28;;;;;;;9.67;4.03;;;;;;;6.35;52.70;101015.88;5074560;27;97346;-76
2021/04/14 01:07:54;;;;;;;13.63;4.57;;;;;;;6.32;52.88;101019.38;5054256;27;98194;-73
2021/04/14 01:10:21;;;;;;;13.57;4.20;;;;;;;6.36;52.67;101020.22;5037916;27;98060;-73
2021/04/14 01:12:47;;;;;;;13.23;3.50;;;;;;;6.32;52.46;101023.72;5037214;27;97150;-73
2021/04/14 01:15:17;;;;;;;15.20;3.97;;;;;;;6.32;52.74;101019.38;5068602;27;97427;-74
2021/04/14 01:17:43;;;;;;;18.50;4.30;;;;;;;6.37;52.46;101027.19;5039561;27;97544;-73
2021/04/14 01:20:09;;;;;;;11.13;3.83;;;;;;;6.32;52.99;101027.19;5056891;27;99737;-73
2021/04/14 01:22:35;;;;;;;14.83;4.30;;;;;;;6.32;52.79;101021.13;5036789;27;97258;-73
2021/04/14 01:25:01;;;;;;;15.13;4.13;;;;;;;6.30;53.00;101028.94;5056551;27;96890;-74
2021/04/14 01:27:27;;;;;;;12.80;3.60;;;;;;;6.30;53.07;101026.31;5036359;27;100487;-73
2021/04/14 01:29:53;;;;;;;12.50;3.87;;;;;;;6.28;53.18;101027.19;5056066;27;97388;-73
2021/04/14 01:32:18;;;;;;;11.63;3.80;;;;;;;6.30;52.77;101026.31;5053170;27;97129;-72
2021/04/14 01:34:44;;;;;;;12.40;3.67;;;;;;;6.23;53.46;101024.63;5051052;27;96921;-73
2021/04/14 01:37:10;;;;;;;15.80;4.10;;;;;;;6.24;53.20;101020.28;5073648;27;98211;-73
2021/04/14 01:39:35;;;;;;;11.43;3.80;;;;;;;6.23;52.83;101022.03;5055226;27;99161;-73
2021/04/14 01:42:01;;;;;;;9.27;3.40;;;;;;;6.26;52.92;101015.94;5052968;27;96614;-73
2021/04/14 01:44:27;;;;;;;12.47;3.53;;;;;;;6.27;53.09;101007.22;5074279;27;96851;-73
2021/04/14 01:46:53;;;;;;;12.57;3.53;;;;;;;6.29;52.89;101014.16;5056827;27;100719;-72
2021/04/14 01:49:18;;;;;;;10.07;3.60;;;;;;;6.36;52.90;101017.59;5039234;27;102010;-72
2021/04/14 01:51:44;;;;;;;12.23;3.50;;;;;;;6.32;52.94;101019.38;5056185;27;97454;-72
2021/04/14 01:54:11;;;;;;;22.47;4.03;;;;;;;6.30;53.12;101017.63;5044412;27;97237;-73
2021/04/14 01:56:38;;;;;;;11.60;3.83;;;;;;;6.28;53.12;101020.28;5056915;27;101356;-72
2021/04/14 01:59:04;;;;;;;10.80;3.17;;;;;;;6.31;52.90;101008.94;5055912;27;101293;-72
2021/04/14 02:01:29;;;;;;;11.37;4.03;;;;;;;6.30;52.62;101015.88;5053068;27;97271;-72
2021/04/14 02:03:55;;;;;;;8.93;3.10;;;;;;;6.32;52.93;101021.13;5037677;27;97109;-74
2021/04/14 02:06:20;;;;;;;10.43;3.50;;;;;;;6.32;52.75;101013.28;5056171;27;101914;-72
2021/04/14 02:08:46;;;;;;;9.63;3.70;;;;;;;6.25;52.81;101017.66;5040041;27;101422;-72
2021/04/14 02:11:13;;;;;;;9.33;3.83;;;;;;;6.21;53.38;101017.69;5055535;27;97290;-72
2021/04/14 02:13:41;;;;;;;12.43;4.20;;;;;;;6.22;53.12;101020.28;5056508;27;96973;-72
2021/04/14 02:16:10;;;;;;;11.27;4.17;;;;;;;6.16;53.55;101022.06;5034926;27;101135;-72
2021/04/14 02:18:36;;;;;;;14.27;3.80;;;;;;;6.19;53.74;101024.66;5038300;27;101590;-72
2021/04/14 02:21:03;;;;;;;13.13;3.80;;;;;;;6.13;54.23;101020.31;5052838;27;96594;-75
2021/04/14 02:23:38;;;;;;;10.47;3.70;;;;;;;6.19;53.81;101022.03;5073385;27;96951;-72
2021/04/14 02:26:07;;;;;;;11.20;3.57;;;;;;;6.16;53.74;101028.13;5052617;27;97401;-72
2021/04/14 02:28:33;;;;;;;9.73;3.90;;;;;;;6.19;53.61;101014.22;5035713;27;99590;-72
2021/04/14 02:30:58;;;;;;;10.73;3.50;;;;;;;6.18;54.22;101017.72;5062665;27;96711;-77
2021/04/14 02:33:24;;;;;;;14.57;3.90;;;;;;;6.12;54.01;101018.59;5039403;27;96852;-72
2021/04/14 02:35:52;;;;;;;16.70;4.23;;;;;;;6.13;54.11;101025.53;5039370;27;100864;-72
2021/04/14 02:38:18;;;;;;;10.53;3.87;;;;;;;6.11;54.25;101025.56;5072430;27;97913;-72
2021/04/14 02:40:43;;;;;;;13.40;3.17;;;;;;;6.07;54.47;101025.56;5045499;27;96855;-72
2021/04/14 02:43:10;;;;;;;14.37;4.37;;;;;;;6.08;54.39;101019.50;5052267;27;96861;-72
2021/04/14 02:45:37;;;;;;;14.47;4.37;;;;;;;6.04;54.94;101025.59;5051808;27;98763;-72
2021/04/14 02:48:04;;;;;;;19.27;4.40;;;;;;;6.06;54.23;101023.84;5034937;27;101371;-72
2021/04/14 02:50:30;;;;;;;18.57;4.83;;;;;;;6.07;54.57;101025.56;5052774;27;97059;-72
2021/04/14 02:52:56;;;;;;;10.93;4.17;;;;;;;6.07;54.76;101023.81;5049791;27;97244;-73
2021/04/14 02:55:25;;;;;;;49.70;5.77;;;;;;;6.10;54.83;101026.41;5055247;27;101241;-72
2021/04/14 02:57:51;;;;;;;13.83;4.70;;;;;;;6.05;54.97;101028.19;5052917;27;101039;-72
2021/04/14 03:00:19;;;;;;;17.13;4.60;;;;;;;6.07;55.19;101031.63;5063700;27;96965;-72
2021/04/14 03:02:45;;;;;;;9.47;3.97;;;;;;;6.04;54.98;101026.44;5038628;27;96820;-72
2021/04/14 03:05:12;;;;;;;13.50;3.83;;;;;;;6.06;55.20;101026.44;5051149;27;101022;-72
2021/04/14 03:07:39;;;;;;;10.97;3.60;;;;;;;6.06;55.47;101029.91;5035347;27;101044;-72
2021/04/14 03:10:06;;;;;;;32.30;5.40;;;;;;;6.04;55.08;101022.97;5043987;27;96817;-72
2021/04/14 03:12:32;;;;;;;10.30;3.83;;;;;;;6.07;55.55;101021.22;5052145;27;97015;-72
2021/04/14 03:14:58;;;;;;;13.63;3.73;;;;;;;6.02;55.39;101015.19;5047758;27;101302;-78
2021/04/14 03:17:24;;;;;;;15.97;5.17;;;;;;;5.99;55.43;101009.97;5051503;27;101732;-72
2021/04/14 03:19:49;;;;;;;11.10;3.77;;;;;;;5.97;55.50;101016.06;5044375;27;96998;-72
2021/04/14 03:22:15;;;;;;;20.80;4.30;;;;;;;5.89;55.69;101013.44;5068447;27;97507;-72
2021/04/14 03:24:41;;;;;;;11.33;4.17;;;;;;;6.01;55.92;101015.16;5069042;27;101283;-72
2021/04/14 03:27:07;;;;;;;63.27;8.47;;;;;;;5.97;55.66;101011.72;5053863;27;98267;-72
2021/04/14 03:29:32;;;;;;;13.90;4.10;;;;;;;6.01;55.88;101013.44;5042796;27;97123;-73
2021/04/14 03:31:58;;;;;;;31.30;5.67;;;;;;;6.04;55.36;101010.81;5050548;27;97084;-76
2021/04/14 03:34:23;;;;;;;13.63;4.23;;;;;;;6.04;55.27;101013.41;5043005;27;101765;-72
2021/04/14 03:36:49;;;;;;;15.47;3.87;;;;;;;6.02;55.81;101012.56;5050867;27;101603;-71
2021/04/14 03:39:15;;;;;;;24.57;5.27;;;;;;;5.97;55.82;101011.72;5047049;27;97274;-72
2021/04/14 03:41:40;;;;;;;24.33;4.93;;;;;;;5.91;55.92;101011.72;5040607;27;97394;-72
2021/04/14 03:44:06;;;;;;;14.00;4.67;;;;;;;5.97;55.87;101010.84;5054367;27;101183;-73
2021/04/14 03:46:32;;;;;;;11.00;4.13;;;;;;;5.97;56.24;101010.84;5051109;27;99772;-73
2021/04/14 03:48:57;;;;;;;15.30;4.93;;;;;;;5.86;56.52;101008.25;5052067;27;96774;-73
2021/04/14 03:51:27;;;;;;;12.20;4.00;;;;;;;5.83;56.37;101011.72;5047194;27;97092;-72
2021/04/14 03:53:53;;;;;;;19.50;5.20;;;;;;;5.84;56.22;101007.38;5048303;27;101459;-72
2021/04/14 03:56:19;;;;;;;15.33;4.10;;;;;;;5.86;56.25;101009.13;5061995;27;100844;-72
2021/04/14 03:58:47;;;;;;;73.43;7.70;;;;;;;5.83;56.21;101010.88;5031497;27;96608;-72
2021/04/14 04:01:15;;;;;;;32.53;5.20;;;;;;;5.79;56.88;101009.13;5066486;27;96871;-72
2021/04/14 04:03:41;;;;;;;24.30;4.80;;;;;;;5.77;56.52;101019.56;5038684;27;101669;-72
2021/04/14 04:06:07;;;;;;;16.40;4.57;;;;;;;5.81;56.93;101015.22;5066945;27;101280;-72
2021/04/14 04:08:33;;;;;;;16.50;3.77;;;;;;;5.80;56.86;101018.69;5034765;27;97011;-72
2021/04/14 04:10:58;;;;;;;29.87;5.57;;;;;;;5.81;56.80;101018.69;5032374;27;96770;-73
2021/04/14 04:13:24;;;;;;;13.47;3.40;;;;;;;5.82;56.79;101016.97;5043587;27;98582;-72
2021/04/14 04:15:50;;;;;;;19.53;4.77;;;;;;;5.82;57.01;101015.22;5051367;27;100646;-72
2021/04/14 04:18:16;;;;;;;22.80;4.70;;;;;;;5.71;57.27;101018.72;5037392;27;97188;-72
2021/04/14 04:20:42;;;;;;;33.83;4.50;;;;;;;5.74;57.29;101024.78;5066978;27;97117;-74
2021/04/14 04:23:08;;;;;;;21.90;4.37;;;;;;;5.78;57.25;101029.09;5067608;27;98067;-72
2021/04/14 04:25:35;;;;;;;42.27;5.80;;;;;;;5.75;57.35;101023.06;5050467;27;100035;-72
2021/04/14 04:28:01;;;;;;;14.30;3.50;;;;;;;5.78;57.70;101033.47;5051602;27;97289;-78
2021/04/14 04:30:28;;;;;;;36.63;5.57;;;;;;;5.80;57.40;101037.81;5031273;27;97021;-72
2021/04/14 04:32:54;;;;;;;62.10;7.67;;;;;;;5.82;57.61;101038.66;5047602;27;101803;-72
2021/04/14 04:35:20;;;;;;;29.43;5.30;;;;;;;5.79;57.85;101040.41;5047464;27;98145;-72
2021/04/14 04:37:46;;;;;;;37.47;5.27;;;;;;;5.71;57.94;101043.03;5043774;27;96754;-72
2021/04/14 04:40:13;;;;;;;13.63;4.20;;;;;;;5.70;58.32;101043.03;5031131;27;96786;-72
2021/04/14 04:42:39;;;;;;;36.30;4.90;;;;;;;5.76;58.08;101033.47;5022445;27;101613;-72
2021/04/14 04:45:06;;;;;;;34.40;5.10;;;;;;;5.79;58.03;101043.91;5046081;27;100974;-78
2021/04/14 04:47:32;;;;;;;33.63;4.67;;;;;;;5.82;58.00;101045.63;5026783;27;97213;-73
2021/04/14 04:49:57;;;;;;;22.83;3.63;;;;;;;5.83;57.36;101053.41;5031465;27;97023;-73
2021/04/14 04:52:23;;;;;;;15.33;4.37;;;;;;;5.82;57.58;101046.50;5060525;27;98072;-72
2021/04/14 04:54:49;;;;;;;20.13;4.63;;;;;;;5.93;57.44;101058.59;5071435;27;101122;-72
2021/04/14 04:57:14;;;;;;;16.87;4.70;;;;;;;5.95;57.09;101057.75;5054074;27;97382;-72
2021/04/14 04:59:40;;;;;;;15.03;4.00;;;;;;;5.89;57.10;101056.00;5034839;27;97243;-72
2021/04/14 05:02:05;;;;;;;18.50;3.73;;;;;;;5.86;57.23;101055.16;5050073;27;98263;-73
2021/04/14 05:04:31;;;;;;;14.10;3.53;;;;;;;5.93;57.35;101056.00;5054406;27;97671;-72
2021/04/14 05:06:56;;;;;;;30.87;5.10;;;;;;;5.86;57.53;101056.00;5036899;27;96991;-73
2021/04/14 05:09:22;;;;;;;18.73;3.93;;;;;;;5.88;57.68;101056.03;5071016;27;97120;-72
2021/04/14 05:11:48;;;;;;;19.37;3.70;;;;;;;5.92;57.41;101059.47;5054064;27;97912;-73
2021/04/14 05:14:14;;;;;;;14.57;4.20;;;;;;;5.89;57.63;101063.81;5035627;27;101517;-72
2021/04/14 05:16:39;;;;;;;10.23;3.93;;;;;;;6.00;57.57;101061.22;5051213;27;97089;-72
2021/04/14 05:19:05;;;;;;;35.17;4.70;;;;;;;5.97;57.51;101061.25;5070643;27;97252;-79
2021/04/14 05:21:35;;;;;;;14.80;3.47;;;;;;;5.97;57.54;101060.38;5036400;27;101059;-73
2021/04/14 05:24:01;;;;;;;13.83;3.87;;;;;;;5.95;57.81;101062.97;5047087;27;100841;-72
2021/04/14 05:26:27;;;;;;;22.37;4.67;;;;;;;6.02;57.54;101062.09;5026055;27;96706;-73
2021/04/14 05:28:52;;;;;;;15.23;4.17;;;;;;;6.08;57.41;101069.88;5050429;27;96873;-72
2021/04/14 05:31:18;;;;;;;14.33;3.87;;;;;;;6.13;57.54;101070.72;5025125;27;101423;-72
2021/04/14 05:33:44;;;;;;;37.03;6.63;;;;;;;6.15;57.30;101069.88;5057202;27;98358;-73
2021/04/14 05:36:09;;;;;;;15.20;4.93;;;;;;;6.15;56.89;101062.91;5049701;27;96804;-73
2021/04/14 05:38:35;;;;;;;12.60;3.87;;;;;;;6.12;57.00;101070.75;5040376;27;97339;-73
2021/04/14 05:41:01;;;;;;;34.97;6.90;;;;;;;6.10;57.38;101069.88;5070276;27;97860;-73
2021/04/14 05:43:30;;;;;;;34.87;9.83;;;;;;;6.21;56.83;101078.53;5071181;27;98015;-72
2021/04/14 05:46:05;;;;;;;14.03;4.90;;;;;;;6.21;56.49;101075.91;5070614;27;97602;-76
2021/04/14 05:48:32;;;;;;;17.13;4.63;;;;;;;6.22;56.91;101072.41;5037212;27;96959;-74
2021/04/14 05:51:00;;;;;;;10.97;4.30;;;;;;;6.25;56.39;101076.75;5022246;27;100920;-74
2021/04/14 05:53:27;;;;;;;13.93;4.67;;;;;;;6.20;56.83;101070.72;5030323;27;100965;-77
2021/04/14 05:55:52;;;;;;;25.57;4.03;;;;;;;6.21;56.82;101068.09;5043437;27;97004;-73
2021/04/14 05:58:18;;;;;;;38.90;4.97;;;;;;;6.29;56.52;101065.47;5049603;27;97266;-74
2021/04/14 06:00:43;;;;;;;17.33;4.17;;;;;;;6.20;56.33;101061.16;5046058;27;101813;-74
2021/04/14 06:03:10;;;;;;;16.77;4.07;;;;;;;6.30;56.84;101062.81;5068937;27;101188;-74
2021/04/14 06:05:39;;;;;;;21.43;4.03;;;;;;;6.39;56.01;101061.91;5066483;27;97424;-73
2021/04/14 06:08:04;;;;;;;15.40;4.23;;;;;;;6.32;56.36;101063.69;5049554;27;97301;-81
2021/04/14 06:10:30;;;;;;;26.20;5.23;;;;;;;6.39;56.44;101061.06;5046298;27;98689;-74
2021/04/14 06:12:56;;;;;;;25.20;4.00;;;;;;;6.45;56.05;101064.50;5070400;27;97213;-76
2021/04/14 06:15:25;;;;;;;16.27;4.20;;;;;;;6.43;56.10;101063.66;5070698;27;96679;-73
2021/04/14 06:17:51;;;;;;;13.87;3.77;;;;;;;6.40;56.40;101062.78;5050780;27;96949;-73
2021/04/14 06:20:21;;;;;;;12.30;3.37;;;;;;;6.44;56.09;101065.38;5046956;27;101470;-71
2021/04/14 06:22:47;;;;;;;12.60;4.20;;;;;;;6.41;56.33;101068.00;5035021;27;102222;-72
2021/04/14 06:25:16;;;;;;;22.87;4.40;;;;;;;6.35;56.51;101062.81;5062899;27;96871;-72
2021/04/14 06:27:56;;;;;;;15.87;3.70;;;;;;;6.37;56.64;101068.00;5026355;27;97002;-72
2021/04/14 06:30:22;;;;;;;14.23;3.23;;;;;;;6.45;56.00;101064.50;5030289;27;101543;-72
2021/04/14 06:32:48;;;;;;;11.77;3.30;;;;;;;6.49;56.09;101061.00;5039827;27;100879;-74
2021/04/14 06:35:15;;;;;;;15.53;3.37;;;;;;;6.59;56.43;101069.63;5025645;27;97296;-74
2021/04/14 06:37:42;;;;;;;10.20;2.63;;;;;;;6.75;55.63;101065.22;5039037;27;97530;-73
2021/04/14 06:40:29;;;;;;;20.67;4.00;;;;;;;6.89;55.60;101063.34;5059117;27;98078;-73
2021/04/14 06:43:15;;;;;;;15.55;4.07;;;;;;;7.05;54.77;101058.03;5060796;27;97431;-76
2021/04/14 06:45:52;;;;;;;16.63;4.07;;;;;;;7.20;54.75;101068.34;5060480;27;97148;-72
2021/04/14 06:48:20;;;;;;;15.17;3.70;;;;;;;7.15;54.58;101064.91;5048089;27;96838;-74
2021/04/14 06:50:49;;;;;;;10.55;3.15;;;;;;;7.03;55.43;101073.69;5047804;27;100879;-77
2021/04/14 06:53:28;;;;;;;13.95;3.15;;;;;;;6.93;55.08;101064.22;5059281;27;98382;-76
2021/04/14 06:55:59;;;;;;;20.73;3.80;;;;;;;6.75;55.52;101068.69;5046719;27;96922;-73
2021/04/14 06:58:33;;;;;;;15.20;3.70;;;;;;;6.75;56.00;101067.81;5024916;27;97298;-73
2021/04/14 07:01:03;;;;;;;14.83;4.50;;;;;;;6.82;55.98;101066.88;5048534;27;97985;-73
2021/04/14 07:03:42;;;;;;;41.30;5.65;;;;;;;6.75;55.81;101071.28;5026342;27;101281;-74
2021/04/14 07:06:10;;;;;;;13.93;3.53;;;;;;;6.75;56.04;101071.28;5059700;27;96843;-73
2021/04/14 07:08:43;;;;;;;20.20;3.80;;;;;;;6.90;55.70;101074.69;5041166;27;96907;-73
2021/04/14 07:11:11;;;;;;;22.65;4.38;;;;;;;7.12;55.56;101068.41;5039674;27;101308;-75
2021/04/14 07:13:37;;;;;;;11.43;3.83;;;;;;;7.36;54.66;101066.44;5045158;27;97795;-74
2021/04/14 07:16:34;;;;;;;10.15;3.53;;;;;;;7.75;53.97;101067.81;5041473;27;97145;-74
2021/04/14 07:19:06;;;;;;;13.30;3.63;;;;;;;7.93;53.49;101069.38;5064224;27;97235;-73
2021/04/14 07:21:50;;;;;;;16.98;3.53;;;;;;;8.51;52.43;101071.28;5026729;27;101660;-72
2021/04/14 07:24:35;;;;;;;11.15;3.15;;;;;;;10.03;49.07;101060.88;5040551;27;98369;-72
2021/04/14 07:27:28;;;;;;;18.42;3.17;;;;;;;10.76;46.64;101055.88;5052319;27;96910;-72
2021/04/14 07:30:14;;;;;;;22.95;3.63;;;;;;;11.13;45.87;101049.72;5032663;27;96887;-72
2021/04/14 07:32:54;;;;;;;16.63;3.50;;;;;;;11.50;45.40;101054.91;5029818;27;100822;-72
2021/04/14 07:35:29;;;;;;;14.98;2.90;;;;;;;11.60;45.20;101052.88;5068844;27;100601;-72
2021/04/14 07:38:33;;;;;;;22.30;3.78;;;;;;;12.13;44.42;101050.59;5051351;27;97384;-71
2021/04/14 07:41:10;;;;;;;15.18;3.35;;;;;;;12.37;44.49;101056.03;5046336;27;97158;-73
2021/04/14 07:44:07;;;;;;;18.52;3.38;;;;;;;12.48;43.31;101050.44;5042312;27;101084;-73
2021/04/14 07:46:36;;;;;;;16.63;3.47;;;;;;;12.14;43.48;101043.53;5067380;27;101576;-72
2021/04/14 07:49:04;;;;;;;13.15;3.20;;;;;;;12.32;44.15;101048.25;5052154;27;96786;-74
2021/04/14 07:51:29;;;;;;;11.80;3.35;;;;;;;12.27;43.92;101037.00;5069944;27;97252;-74
2021/04/14 07:54:04;;;;;;;14.75;3.33;;;;;;;11.90;44.62;101048.59;5075636;27;101189;-77
2021/04/14 07:56:41;;;;;;;12.65;3.15;;;;;;;12.18;43.97;101042.53;5068015;27;97979;-74
2021/04/14 07:59:10;;;;;;;16.58;4.00;;;;;;;11.87;44.45;101048.69;5068992;27;96783;-76
2021/04/14 08:01:37;;;;;;;15.48;3.65;;;;;;;12.15;44.09;101048.75;5052054;27;97411;-73
2021/04/14 08:04:20;;;;;;;12.55;3.22;;;;;;;12.29;43.91;101045.72;5051301;27;100614;-73
2021/04/14 08:06:46;;;;;;;16.85;3.65;;;;;;;12.63;43.09;101032.41;5060374;27;98421;-74
2021/04/14 08:09:15;;;;;;;13.40;3.28;;;;;;;13.33;41.87;101036.31;5051786;27;97376;-74
2021/04/14 08:11:42;;;;;;;12.43;4.28;;;;;;;13.47;41.34;101034.06;5048877;27;96867;-74
2021/04/14 08:14:18;;;;;;;13.02;3.50;;;;;;;14.46;39.66;101039.25;5044081;27;101110;-75
2021/04/14 08:16:48;;;;;;;17.63;4.20;;;;;;;13.61;41.38;101033.56;5070943;27;97121;-72
2021/04/14 08:19:36;;;;;;;15.13;3.33;;;;;;;13.75;40.41;101043.63;5035076;27;98085;-74
2021/04/14 08:22:06;;;;;;;11.40;2.90;;;;;;;14.50;39.62;101039.03;5048609;27;97206;-74
2021/04/14 08:24:37;;;;;;;16.25;3.80;;;;;;;13.87;40.42;101035.25;5049268;27;101428;-74
2021/04/14 08:27:12;;;;;;;22.50;4.80;;;;;;;13.03;41.89;101033.75;5052862;27;101529;-75
2021/04/14 08:29:38;;;;;;;14.35;3.20;;;;;;;12.34;43.19;101037.69;5047472;27;97425;-74
2021/04/14 08:32:09;;;;;;;17.73;4.07;;;;;;;12.16;44.11;101041.75;5051867;27;97495;-74
2021/04/14 08:34:36;;;;;;;16.65;3.38;;;;;;;11.64;44.60;101037.91;5055664;27;98488;-76
2021/04/14 08:37:20;;;;;;;21.83;4.10;;;;;;;11.53;44.61;101038.19;5059040;27;97918;-75
2021/04/14 08:39:58;;;;;;;13.70;3.72;;;;;;;12.37;43.73;101030.56;5051825;27;97271;-77
2021/04/14 08:42:35;;;;;;;14.85;3.67;;;;;;;12.10;43.25;101039.25;5069932;27;97832;-80
2021/04/14 08:45:05;;;;;;;13.30;3.95;;;;;;;12.23;43.13;101022.22;5068043;27;98531;-77
2021/04/14 08:47:33;;;;;;;20.63;5.28;;;;;;;12.32;43.11;101023.72;5072518;27;101131;-74
2021/04/14 08:50:07;;;;;;;13.27;5.90;;;;;;;12.45;42.60;101031.19;5073211;27;96943;-75
2021/04/14 08:52:43;;;;;;;21.65;5.07;;;;;;;12.78;42.43;101020.50;5086187;27;96885;-74
2021/04/14 08:55:10;;;;;;;14.38;5.40;;;;;;;12.30;43.21;101017.63;5053563;27;101285;-76
2021/04/14 08:57:36;;;;;;;14.77;4.93;;;;;;;12.98;41.89;101016.38;5037346;27;101419;-72
2021/04/14 09:00:05;;;;;;;35.85;10.18;;;;;;;12.54;42.07;101019.53;5053862;27;97414;-73
2021/04/14 09:02:31;;;;;;;18.73;6.28;;;;;;;13.09;41.19;101015.09;5072798;27;96813;-74
2021/04/14 09:04:56;;;;;;;23.85;5.75;;;;;;;13.94;39.78;101004.25;5040076;27;101314;-73
2021/04/14 09:07:31;;;;;;;12.73;4.35;;;;;;;12.68;40.90;101019.06;5031984;27;100938;-73
2021/04/14 09:09:57;;;;;;;10.93;2.75;;;;;;;11.97;42.49;101009.81;5038410;27;97466;-74
2021/04/14 09:12:56;;;;;;;11.82;2.72;;;;;;;11.17;43.44;101014.59;5051450;27;97557;-73
2021/04/14 09:15:22;;;;;;;13.90;3.58;;;;;;;11.48;43.52;101012.00;5074067;27;98195;-71
2021/04/14 09:18:04;;;;;;;15.80;4.32;;;;;;;12.74;42.44;101003.09;5048007;27;100539;-72
2021/04/14 09:20:35;;;;;;;14.77;4.03;;;;;;;12.51;42.18;101010.84;5023702;27;97330;-72
2021/04/14 09:23:17;;;;;;;16.42;4.43;;;;;;;12.21;42.85;101002.97;5057535;27;97414;-74
2021/04/14 09:25:46;;;;;;;18.95;5.07;;;;;;;11.88;43.13;101007.47;5030656;27;100012;-74
2021/04/14 09:28:30;;;;;;;10.95;3.35;;;;;;;11.28;44.06;100994.13;5039363;27;101394;-75
2021/04/14 09:31:39;;;;;;;17.17;4.88;;;;;;;10.77;44.82;100996.31;5025028;27;96870;-77
2021/04/14 09:34:20;;;;;;;5.30;2.30;;;;;;;10.72;45.08;101006.06;5056888;27;97022;-75
2021/04/14 09:36:49;;;;;;;14.90;3.43;;;;;;;11.21;43.88;100996.97;5054969;27;101873;-74
2021/04/14 09:39:32;;;;;;;9.68;2.58;;;;;;;12.05;43.17;100985.94;5055483;27;101128;-73
2021/04/14 09:41:58;;;;;;;6.30;2.53;;;;;;;11.77;42.75;100989.31;5056624;27;96827;-73
2021/04/14 09:44:37;;;;;;;10.98;2.60;;;;;;;11.18;43.35;100992.66;5073055;27;96874;-73
2021/04/14 09:47:27;;;;;;;14.02;3.85;;;;;;;10.61;44.61;100994.03;5068407;27;97538;-73
2021/04/14 09:49:56;;;;;;;14.30;3.80;;;;;;;10.39;44.41;100998.06;5090304;27;98332;-73
2021/04/14 09:52:42;;;;;;;16.98;3.47;;;;;;;10.24;45.40;100996.63;5046664;27;96831;-75
2021/04/14 09:55:37;;;;;;;12.70;2.88;;;;;;;10.12;45.48;100996.88;5089939;27;96941;-73
2021/04/14 09:58:10;;;;;;;12.82;3.08;;;;;;;10.02;45.88;100993.59;5045445;27;98192;-76
2021/04/14 10:00:41;;;;;;;9.95;2.35;;;;;;;9.88;46.11;100988.63;5038860;27;98566;-74
2021/04/14 10:03:21;;;;;;;13.90;4.13;;;;;;;9.91;45.76;100985.06;5031828;27;96841;-74
2021/04/14 10:05:47;;;;;;;11.88;3.78;;;;;;;10.06;45.82;100984.75;5068326;27;96771;-74
2021/04/14 10:08:15;;;;;;;16.98;3.97;;;;;;;10.14;45.58;100985.44;5050327;27;101446;-75
2021/04/14 10:10:47;;;;;;;11.50;3.17;;;;;;;10.36;44.58;100983.25;5039716;27;100870;-75
2021/04/14 10:13:17;;;;;;;31.83;4.93;;;;;;;10.63;44.50;100984.38;5067632;27;97020;-74
2021/04/14 10:15:46;;;;;;;9.27;2.63;;;;;;;10.42;44.57;100979.63;5052256;27;97449;-73
2021/04/14 10:18:21;;;;;;;16.13;4.40;;;;;;;10.24;44.77;100987.88;5053264;27;100006;-74
2021/04/14 10:20:48;;;;;;;13.07;4.10;;;;;;;9.85;45.50;100983.44;5057498;27;98172;-73
2021/04/14 10:23:17;;;;;;;12.98;4.93;;;;;;;9.66;46.17;100980.34;5050926;27;96841;-73
2021/04/14 10:25:43;;;;;;;20.33;4.50;;;;;;;9.60;46.37;100983.09;5033527;27;97368;-74
2021/04/14 10:28:18;;;;;;;11.70;2.88;;;;;;;9.66;46.91;100982.09;5040495;27;97460;-72
2021/04/14 10:31:07;;;;;;;13.88;2.70;;;;;;;9.78;46.70;100987.09;5053569;27;97621;-74
2021/04/14 10:33:34;;;;;;;14.23;2.63;;;;;;;9.78;46.52;100981.84;5070981;27;97310;-73
2021/04/14 10:36:30;;;;;;;8.95;2.38;;;;;;;9.96;46.17;100977.97;5053628;27;97524;-76
2021/04/14 10:39:16;;;;;;;13.25;3.25;;;;;;;10.04;46.46;100973.44;5026156;27;100173;-76
2021/04/14 10:41:43;;;;;;;13.80;3.67;;;;;;;10.48;45.71;100968.13;5070450;27;97851;-73
2021/04/14 10:44:25;;;;;;;11.80;3.10;;;;;;;10.49;45.51;100957.59;5070730;27;96885;-74
2021/04/14 10:46:58;;;;;;;7.30;2.17;;;;;;;10.23;44.98;100960.78;5033530;27;96882;-73
2021/04/14 10:49:26;;;;;;;12.15;2.45;;;;;;;10.29;44.53;100965.06;5064784;27;98055;-73
2021/04/14 10:51:54;;;;;;;15.55;2.85;;;;;;;10.08;44.26;100958.50;5072081;27;98116;-73
2021/04/14 10:54:23;;;;;;;12.32;3.38;;;;;;;10.25;44.13;100968.63;5042325;27;97288;-73
2021/04/14 10:56:57;;;;;;;14.77;2.58;;;;;;;10.26;44.19;100958.06;5046142;27;96986;-72
2021/04/14 10:59:23;;;;;;;22.88;3.78;;;;;;;10.14;44.48;100968.84;5055232;27;101554;-73
2021/04/14 11:01:48;;;;;;;10.60;3.42;;;;;;;9.89;45.64;100966.78;5040492;27;101064;-77
2021/04/14 11:04:29;;;;;;;6.95;2.33;;;;;;;9.68;46.23;100962.81;5053543;27;98096;-80
2021/04/14 11:06:58;;;;;;;16.42;3.40;;;;;;;9.51;46.71;100967.50;5083848;27;96991;-72
2021/04/14 11:09:25;;;;;;;11.02;3.55;;;;;;;9.45;47.11;100970.25;5068475;27;98274;-72
2021/04/14 11:11:51;;;;;;;12.43;2.83;;;;;;;9.58;46.75;100966.50;5043066;27;98024;-73
2021/04/14 11:14:18;;;;;;;11.07;3.70;;;;;;;9.73;47.08;100962.72;5045856;27;96735;-76
2021/04/14 11:16:46;;;;;;;13.50;3.40;;;;;;;9.84;46.31;100965.13;5038784;27;96798;-72
2021/04/14 11:19:18;;;;;;;12.85;3.55;;;;;;;9.66;45.90;100956.75;5064201;27;97384;-74
2021/04/14 11:21:44;;;;;;;8.07;2.75;;;;;;;9.57;46.33;100961.28;5047870;27;101449;-73
2021/04/14 11:24:17;;;;;;;18.88;3.55;;;;;;;9.58;46.65;100961.28;5052870;27;96772;-73
2021/04/14 11:26:54;;;;;;;11.60;3.33;;;;;;;9.42;46.40;100965.94;5039213;27;96741;-71
2021/04/14 11:29:32;;;;;;;22.25;4.30;;;;;;;9.30;46.26;100966.16;5059420;27;98003;-73
2021/04/14 11:31:59;;;;;;;9.00;2.97;;;;;;;9.57;47.06;100964.81;5035224;27;101289;-72
2021/04/14 11:34:25;;;;;;;21.08;3.40;;;;;;;9.74;46.30;100962.72;5052721;27;96938;-72